sensor_id;sensor_type;location;lat;lon;timestamp;pressure;altitude;pressure_sealevel;temperature;humidity
52653;BME280;39353;42.864;12.014;2023-02-19T00:01:42;98608.56;;;20.74;49.32
52653;BME280;39353;42.864;12.014;2023-02-19T00:04:17;98611.83;;;20.73;49.26
52653;BME280;39353;42.864;12.014;2023-02-19T00:06:45;98607.83;;;20.72;49.41
52653;BME280;39353;42.864;12.014;2023-02-19T00:09:15;98604.17;;;20.70;49.28
52653;BME280;39353;42.864;12.014;2023-02-19T00:11:43;98604.78;;;20.69;49.30
52653;BME280;39353;42.864;12.014;2023-02-19T00:14:25;98602.75;;;20.67;49.40
52653;BME280;39353;42.864;12.014;2023-02-19T00:17:06;98595.90;;;20.65;49.41
52653;BME280;39353;42.864;12.014;2023-02-19T00:19:53;98593.95;;;20.63;49.50
52653;BME280;39353;42.864;12.014;2023-02-19T00:22:34;98596.63;;;20.62;49.40
52653;BME280;39353;42.864;12.014;2023-02-19T00:25:16;98600.81;;;20.60;49.44
52653;BME280;39353;42.864;12.014;2023-02-19T00:27:43;98599.04;;;20.59;49.56
52653;BME280;39353;42.864;12.014;2023-02-19T00:30:10;98596.91;;;20.59;49.46
52653;BME280;39353;42.864;12.014;2023-02-19T00:32:38;98595.41;;;20.57;49.64
52653;BME280;39353;42.864;12.014;2023-02-19T00:35:06;98594.33;;;20.56;49.69
52653;BME280;39353;42.864;12.014;2023-02-19T00:37:33;98594.48;;;20.55;49.57
52653;BME280;39353;42.864;12.014;2023-02-19T00:40:01;98591.45;;;20.53;49.64
52653;BME280;39353;42.864;12.014;2023-02-19T00:42:42;98593.38;;;20.52;49.55
52653;BME280;39353;42.864;12.014;2023-02-19T00:45:09;98589.21;;;20.50;49.67
52653;BME280;39353;42.864;12.014;2023-02-19T00:47:36;98589.17;;;20.49;49.63
52653;BME280;39353;42.864;12.014;2023-02-19T00:50:05;98583.37;;;20.49;49.74
52653;BME280;39353;42.864;12.014;2023-02-19T00:52:46;98578.99;;;20.48;49.74
52653;BME280;39353;42.864;12.014;2023-02-19T00:55:14;98578.80;;;20.46;49.73
52653;BME280;39353;42.864;12.014;2023-02-19T00:57:55;98581.57;;;20.45;49.72
52653;BME280;39353;42.864;12.014;2023-02-19T01:00:22;98583.70;;;20.44;49.76
52653;BME280;39353;42.864;12.014;2023-02-19T01:02:49;98580.38;;;20.43;49.78
52653;BME280;39353;42.864;12.014;2023-02-19T01:05:16;98576.30;;;20.42;49.85
52653;BME280;39353;42.864;12.014;2023-02-19T01:08:04;98580.18;;;20.40;49.79
52653;BME280;39353;42.864;12.014;2023-02-19T01:10:45;98575.62;;;20.39;49.97
52653;BME280;39353;42.864;12.014;2023-02-19T01:13:13;98580.56;;;20.38;49.87
52653;BME280;39353;42.864;12.014;2023-02-19T01:16:11;98578.86;;;20.37;49.89
52653;BME280;39353;42.864;12.014;2023-02-19T01:18:53;98571.77;;;20.36;49.99
52653;BME280;39353;42.864;12.014;2023-02-19T01:21:23;98569.91;;;20.35;49.99
52653;BME280;39353;42.864;12.014;2023-02-19T01:24:05;98573.33;;;20.33;49.89
52653;BME280;39353;42.864;12.014;2023-02-19T01:26:32;98567.96;;;20.33;49.84
52653;BME280;39353;42.864;12.014;2023-02-19T01:29:13;98558.99;;;20.33;49.83
52653;BME280;39353;42.864;12.014;2023-02-19T01:31:40;98557.98;;;20.33;49.82
52653;BME280;39353;42.864;12.014;2023-02-19T01:34:09;98554.65;;;20.32;49.85
52653;BME280;39353;42.864;12.014;2023-02-19T01:36:37;98552.48;;;20.32;49.90
52653;BME280;39353;42.864;12.014;2023-02-19T01:39:07;98546.94;;;20.31;49.97
52653;BME280;39353;42.864;12.014;2023-02-19T01:41:47;98545.39;;;20.31;49.97
52653;BME280;39353;42.864;12.014;2023-02-19T01:46:45;98535.88;;;20.28;49.98
52653;BME280;39353;42.864;12.014;2023-02-19T01:52:07;98527.00;;;20.28;50.04
52653;BME280;39353;42.864;12.014;2023-02-19T01:54:42;98525.02;;;20.27;49.91
52653;BME280;39353;42.864;12.014;2023-02-19T01:57:32;98520.55;;;20.26;49.95
52653;BME280;39353;42.864;12.014;2023-02-19T02:00:07;98516.58;;;20.24;49.96
52653;BME280;39353;42.864;12.014;2023-02-19T02:02:43;98513.98;;;20.23;50.05
52653;BME280;39353;42.864;12.014;2023-02-19T02:05:39;98510.65;;;20.22;49.92
52653;BME280;39353;42.864;12.014;2023-02-19T02:08:09;98509.35;;;20.21;50.00
52653;BME280;39353;42.864;12.014;2023-02-19T02:11:10;98506.02;;;20.20;50.00
52653;BME280;39353;42.864;12.014;2023-02-19T02:13:52;98499.27;;;20.19;50.03
52653;BME280;39353;42.864;12.014;2023-02-19T02:25:25;98482.65;;;20.14;49.98
52653;BME280;39353;42.864;12.014;2023-02-19T02:33:43;98476.81;;;20.10;49.80
52653;BME280;39353;42.864;12.014;2023-02-19T02:39:18;98469.36;;;20.07;49.89
52653;BME280;39353;42.864;12.014;2023-02-19T02:41:55;98469.48;;;20.06;49.87
52653;BME280;39353;42.864;12.014;2023-02-19T02:44:43;98468.50;;;20.05;49.77
52653;BME280;39353;42.864;12.014;2023-02-19T02:47:50;98471.64;;;20.04;49.65
52653;BME280;39353;42.864;12.014;2023-02-19T02:50:24;98467.48;;;20.03;49.73
52653;BME280;39353;42.864;12.014;2023-02-19T02:53:09;98469.08;;;20.03;49.87
52653;BME280;39353;42.864;12.014;2023-02-19T02:56:12;98464.80;;;20.03;49.90
52653;BME280;39353;42.864;12.014;2023-02-19T02:58:42;98462.77;;;20.02;50.00
52653;BME280;39353;42.864;12.014;2023-02-19T03:01:36;98463.77;;;20.01;49.99
52653;BME280;39353;42.864;12.014;2023-02-19T03:10:53;98456.15;;;19.98;50.08
52653;BME280;39353;42.864;12.014;2023-02-19T03:13:37;98452.31;;;19.97;49.97
52653;BME280;39353;42.864;12.014;2023-02-19T03:16:32;98452.77;;;19.96;50.04
52653;BME280;39353;42.864;12.014;2023-02-19T03:19:24;98447.35;;;19.95;50.08
52653;BME280;39353;42.864;12.014;2023-02-19T03:22:18;98440.67;;;19.94;50.20
52653;BME280;39353;42.864;12.014;2023-02-19T03:25:00;98438.41;;;19.93;50.15
52653;BME280;39353;42.864;12.014;2023-02-19T03:27:49;98438.99;;;19.93;50.18
52653;BME280;39353;42.864;12.014;2023-02-19T03:30:34;98437.34;;;19.92;50.33
52653;BME280;39353;42.864;12.014;2023-02-19T03:33:09;98432.31;;;19.91;50.42
52653;BME280;39353;42.864;12.014;2023-02-19T03:35:43;98432.05;;;19.90;50.40
52653;BME280;39353;42.864;12.014;2023-02-19T03:38:21;98434.14;;;19.90;50.38
52653;BME280;39353;42.864;12.014;2023-02-19T03:44:40;98433.01;;;19.87;50.45
52653;BME280;39353;42.864;12.014;2023-02-19T03:51:01;98433.42;;;19.85;50.55
52653;BME280;39353;42.864;12.014;2023-02-19T03:53:33;98437.94;;;19.86;50.49
52653;BME280;39353;42.864;12.014;2023-02-19T03:56:55;98432.48;;;19.84;50.40
52653;BME280;39353;42.864;12.014;2023-02-19T03:59:35;98430.92;;;19.84;50.46
52653;BME280;39353;42.864;12.014;2023-02-19T04:02:37;98437.71;;;19.83;50.43
52653;BME280;39353;42.864;12.014;2023-02-19T04:05:26;98442.09;;;19.81;50.47
52653;BME280;39353;42.864;12.014;2023-02-19T04:08:04;98436.56;;;19.82;50.40
52653;BME280;39353;42.864;12.014;2023-02-19T04:10:54;98434.85;;;19.81;50.39
52653;BME280;39353;42.864;12.014;2023-02-19T04:13:31;98440.61;;;19.80;50.56
52653;BME280;39353;42.864;12.014;2023-02-19T04:16:22;98438.89;;;19.79;50.42
52653;BME280;39353;42.864;12.014;2023-02-19T04:18:57;98443.73;;;19.78;50.46
52653;BME280;39353;42.864;12.014;2023-02-19T04:21:29;98440.31;;;19.76;50.47
52653;BME280;39353;42.864;12.014;2023-02-19T04:24:02;98440.04;;;19.76;50.33
52653;BME280;39353;42.864;12.014;2023-02-19T04:26:33;98440.40;;;19.76;50.45
52653;BME280;39353;42.864;12.014;2023-02-19T04:29:15;98445.00;;;19.75;50.41
52653;BME280;39353;42.864;12.014;2023-02-19T04:31:58;98442.39;;;19.74;50.32
52653;BME280;39353;42.864;12.014;2023-02-19T04:34:39;98435.60;;;19.73;50.29
52653;BME280;39353;42.864;12.014;2023-02-19T04:37:20;98437.44;;;19.73;50.20
52653;BME280;39353;42.864;12.014;2023-02-19T04:39:47;98436.48;;;19.72;50.45
52653;BME280;39353;42.864;12.014;2023-02-19T04:42:29;98438.61;;;19.71;50.32
52653;BME280;39353;42.864;12.014;2023-02-19T04:45:10;98438.58;;;19.72;50.49
52653;BME280;39353;42.864;12.014;2023-02-19T04:47:51;98434.55;;;19.71;50.52
52653;BME280;39353;42.864;12.014;2023-02-19T04:50:18;98432.35;;;19.69;50.58
52653;BME280;39353;42.864;12.014;2023-02-19T04:52:59;98430.75;;;19.68;50.64
52653;BME280;39353;42.864;12.014;2023-02-19T04:55:38;98428.02;;;19.68;50.60
52653;BME280;39353;42.864;12.014;2023-02-19T04:58:20;98433.77;;;19.67;50.62
52653;BME280;39353;42.864;12.014;2023-02-19T05:01:02;98435.73;;;19.67;50.56
52653;BME280;39353;42.864;12.014;2023-02-19T05:03:44;98438.11;;;19.67;50.69
52653;BME280;39353;42.864;12.014;2023-02-19T05:06:12;98439.98;;;19.66;50.70
52653;BME280;39353;42.864;12.014;2023-02-19T05:08:53;98436.20;;;19.65;50.59
52653;BME280;39353;42.864;12.014;2023-02-19T05:11:34;98435.88;;;19.64;50.60
52653;BME280;39353;42.864;12.014;2023-02-19T05:14:02;98433.73;;;19.64;50.67
52653;BME280;39353;42.864;12.014;2023-02-19T05:16:29;98435.40;;;19.64;50.66
52653;BME280;39353;42.864;12.014;2023-02-19T05:19:11;98428.16;;;19.64;50.67
52653;BME280;39353;42.864;12.014;2023-02-19T05:21:52;98423.40;;;19.62;50.78
52653;BME280;39353;42.864;12.014;2023-02-19T05:24:19;98427.42;;;19.62;50.73
52653;BME280;39353;42.864;12.014;2023-02-19T05:26:46;98423.42;;;19.61;50.71
52653;BME280;39353;42.864;12.014;2023-02-19T05:29:32;98425.95;;;19.61;50.74
52653;BME280;39353;42.864;12.014;2023-02-19T05:31:59;98426.90;;;19.59;50.84
52653;BME280;39353;42.864;12.014;2023-02-19T05:34:40;98424.44;;;19.58;50.68
52653;BME280;39353;42.864;12.014;2023-02-19T05:37:21;98422.21;;;19.59;50.78
52653;BME280;39353;42.864;12.014;2023-02-19T05:40:03;98422.08;;;19.59;50.71
52653;BME280;39353;42.864;12.014;2023-02-19T05:42:31;98421.98;;;19.58;50.74
52653;BME280;39353;42.864;12.014;2023-02-19T05:44:59;98427.59;;;19.58;50.75
52653;BME280;39353;42.864;12.014;2023-02-19T05:47:27;98428.23;;;19.57;50.65
52653;BME280;39353;42.864;12.014;2023-02-19T05:49:54;98425.92;;;19.57;50.71
52653;BME280;39353;42.864;12.014;2023-02-19T05:52:37;98430.63;;;19.56;50.75
52653;BME280;39353;42.864;12.014;2023-02-19T05:55:18;98426.65;;;19.56;50.58
52653;BME280;39353;42.864;12.014;2023-02-19T05:57:47;98429.29;;;19.55;50.63
52653;BME280;39353;42.864;12.014;2023-02-19T06:00:16;98419.18;;;19.54;50.62
52653;BME280;39353;42.864;12.014;2023-02-19T06:02:45;98419.36;;;19.54;50.71
52653;BME280;39353;42.864;12.014;2023-02-19T06:05:26;98419.33;;;19.52;50.75
52653;BME280;39353;42.864;12.014;2023-02-19T06:08:10;98416.31;;;19.53;50.81
52653;BME280;39353;42.864;12.014;2023-02-19T06:10:52;98421.94;;;19.53;50.81
52653;BME280;39353;42.864;12.014;2023-02-19T06:13:33;98429.45;;;19.52;50.83
52653;BME280;39353;42.864;12.014;2023-02-19T06:16:16;98437.59;;;19.52;50.76
52653;BME280;39353;42.864;12.014;2023-02-19T06:19:03;98433.17;;;19.51;50.79
52653;BME280;39353;42.864;12.014;2023-02-19T06:21:30;98432.65;;;19.51;50.74
52653;BME280;39353;42.864;12.014;2023-02-19T06:24:11;98423.25;;;19.51;50.75
52653;BME280;39353;42.864;12.014;2023-02-19T06:26:52;98426.44;;;19.52;50.69
52653;BME280;39353;42.864;12.014;2023-02-19T06:29:33;98426.10;;;19.51;50.71
52653;BME280;39353;42.864;12.014;2023-02-19T06:32:06;98422.21;;;19.52;50.66
52653;BME280;39353;42.864;12.014;2023-02-19T06:34:34;98424.76;;;19.51;50.71
52653;BME280;39353;42.864;12.014;2023-02-19T06:37:02;98420.73;;;19.51;50.65
52653;BME280;39353;42.864;12.014;2023-02-19T06:39:43;98411.09;;;19.49;50.75
52653;BME280;39353;42.864;12.014;2023-02-19T06:42:10;98417.48;;;19.48;50.71
52653;BME280;39353;42.864;12.014;2023-02-19T06:44:37;98425.66;;;19.47;50.77
52653;BME280;39353;42.864;12.014;2023-02-19T06:47:04;98429.05;;;19.48;50.69
52653;BME280;39353;42.864;12.014;2023-02-19T06:49:31;98428.95;;;19.47;50.74
52653;BME280;39353;42.864;12.014;2023-02-19T06:51:58;98429.38;;;19.47;50.62
52653;BME280;39353;42.864;12.014;2023-02-19T06:54:40;98431.85;;;19.46;50.82
52653;BME280;39353;42.864;12.014;2023-02-19T06:57:20;98430.34;;;19.45;50.88
52653;BME280;39353;42.864;12.014;2023-02-19T07:00:03;98433.20;;;19.44;50.92
52653;BME280;39353;42.864;12.014;2023-02-19T07:02:44;98432.36;;;19.43;50.84
52653;BME280;39353;42.864;12.014;2023-02-19T07:05:11;98435.42;;;19.43;50.82
52653;BME280;39353;42.864;12.014;2023-02-19T07:07:52;98438.05;;;19.42;50.82
52653;BME280;39353;42.864;12.014;2023-02-19T07:10:32;98442.07;;;19.42;50.89
52653;BME280;39353;42.864;12.014;2023-02-19T07:13:00;98441.02;;;19.42;50.93
52653;BME280;39353;42.864;12.014;2023-02-19T07:15:28;98444.65;;;19.41;50.93
52653;BME280;39353;42.864;12.014;2023-02-19T07:18:09;98447.84;;;19.41;50.96
52653;BME280;39353;42.864;12.014;2023-02-19T07:23:47;98435.63;;;19.40;50.99
52653;BME280;39353;42.864;12.014;2023-02-19T07:26:30;98430.56;;;19.40;50.95
52653;BME280;39353;42.864;12.014;2023-02-19T07:29:11;98433.10;;;19.39;51.06
52653;BME280;39353;42.864;12.014;2023-02-19T07:31:52;98433.69;;;19.38;50.94
52653;BME280;39353;42.864;12.014;2023-02-19T07:34:33;98425.06;;;19.38;50.81
52653;BME280;39353;42.864;12.014;2023-02-19T07:37:14;98428.86;;;19.38;50.95
52653;BME280;39353;42.864;12.014;2023-02-19T07:39:41;98430.62;;;19.37;50.99
52653;BME280;39353;42.864;12.014;2023-02-19T07:42:10;98427.94;;;19.36;50.98
52653;BME280;39353;42.864;12.014;2023-02-19T07:44:38;98432.02;;;19.36;50.60
52653;BME280;39353;42.864;12.014;2023-02-19T07:47:22;98427.63;;;19.35;50.27
52653;BME280;39353;42.864;12.014;2023-02-19T07:49:50;98423.72;;;19.34;49.97
52653;BME280;39353;42.864;12.014;2023-02-19T07:52:17;98421.90;;;19.32;50.04
52653;BME280;39353;42.864;12.014;2023-02-19T07:54:58;98426.17;;;19.32;50.05
52653;BME280;39353;42.864;12.014;2023-02-19T07:57:29;98425.13;;;19.31;50.24
52653;BME280;39353;42.864;12.014;2023-02-19T08:00:12;98423.56;;;19.31;50.58
52653;BME280;39353;42.864;12.014;2023-02-19T08:02:54;98423.90;;;19.31;50.62
52653;BME280;39353;42.864;12.014;2023-02-19T08:05:33;98424.40;;;19.31;50.68
52653;BME280;39353;42.864;12.014;2023-02-19T08:08:06;98422.92;;;19.30;50.84
52653;BME280;39353;42.864;12.014;2023-02-19T08:10:34;98420.59;;;19.30;50.72
52653;BME280;39353;42.864;12.014;2023-02-19T08:13:34;98421.83;;;19.29;50.75
52653;BME280;39353;42.864;12.014;2023-02-19T08:16:16;98418.70;;;19.29;50.75
52653;BME280;39353;42.864;12.014;2023-02-19T08:18:59;98418.03;;;19.30;50.71
52653;BME280;39353;42.864;12.014;2023-02-19T08:21:26;98417.83;;;19.30;50.17
52653;BME280;39353;42.864;12.014;2023-02-19T08:23:53;98413.63;;;19.29;50.58
52653;BME280;39353;42.864;12.014;2023-02-19T08:26:34;98412.79;;;19.29;50.63
52653;BME280;39353;42.864;12.014;2023-02-19T08:29:16;98415.54;;;19.28;50.61
52653;BME280;39353;42.864;12.014;2023-02-19T08:31:57;98413.20;;;19.28;50.67
52653;BME280;39353;42.864;12.014;2023-02-19T08:34:24;98416.55;;;19.27;50.59
52653;BME280;39353;42.864;12.014;2023-02-19T08:37:05;98415.53;;;19.27;50.67
52653;BME280;39353;42.864;12.014;2023-02-19T08:39:46;98414.14;;;19.26;50.49
52653;BME280;39353;42.864;12.014;2023-02-19T08:42:27;98413.29;;;19.26;50.59
52653;BME280;39353;42.864;12.014;2023-02-19T08:44:55;98415.61;;;19.26;50.68
52653;BME280;39353;42.864;12.014;2023-02-19T08:47:22;98419.95;;;19.26;50.70
52653;BME280;39353;42.864;12.014;2023-02-19T08:50:06;98418.05;;;19.27;50.73
52653;BME280;39353;42.864;12.014;2023-02-19T08:52:50;98423.67;;;19.26;50.68
52653;BME280;39353;42.864;12.014;2023-02-19T08:55:18;98423.11;;;19.24;50.79
52653;BME280;39353;42.864;12.014;2023-02-19T08:57:59;98419.20;;;19.24;50.83
52653;BME280;39353;42.864;12.014;2023-02-19T09:00:26;98425.16;;;19.24;50.77
52653;BME280;39353;42.864;12.014;2023-02-19T09:02:53;98418.36;;;19.26;50.99
52653;BME280;39353;42.864;12.014;2023-02-19T09:05:34;98423.38;;;19.28;51.23
52653;BME280;39353;42.864;12.014;2023-02-19T09:08:01;98421.79;;;19.29;51.42
52653;BME280;39353;42.864;12.014;2023-02-19T09:10:29;98417.60;;;19.29;51.37
52653;BME280;39353;42.864;12.014;2023-02-19T09:13:10;98415.71;;;19.28;51.36
52653;BME280;39353;42.864;12.014;2023-02-19T09:15:39;98415.34;;;19.28;51.35
52653;BME280;39353;42.864;12.014;2023-02-19T09:18:06;98416.88;;;19.28;51.41
52653;BME280;39353;42.864;12.014;2023-02-19T09:20:33;98415.91;;;19.27;51.39
52653;BME280;39353;42.864;12.014;2023-02-19T09:23:00;98420.26;;;19.27;51.28
52653;BME280;39353;42.864;12.014;2023-02-19T09:25:41;98415.95;;;19.27;51.45
52653;BME280;39353;42.864;12.014;2023-02-19T09:28:23;98416.11;;;19.27;51.31
52653;BME280;39353;42.864;12.014;2023-02-19T09:31:05;98410.96;;;19.27;51.39
52653;BME280;39353;42.864;12.014;2023-02-19T09:33:47;98413.40;;;19.28;52.00
52653;BME280;39353;42.864;12.014;2023-02-19T09:36:15;98413.30;;;19.30;52.69
52653;BME280;39353;42.864;12.014;2023-02-19T09:38:59;98415.00;;;19.32;53.67
52653;BME280;39353;42.864;12.014;2023-02-19T09:41:47;98411.33;;;19.34;54.44
52653;BME280;39353;42.864;12.014;2023-02-19T09:44:36;98413.92;;;19.37;55.31
52653;BME280;39353;42.864;12.014;2023-02-19T09:47:14;98406.87;;;19.40;55.61
52653;BME280;39353;42.864;12.014;2023-02-19T09:50:01;98407.80;;;19.41;55.62
52653;BME280;39353;42.864;12.014;2023-02-19T09:52:55;98405.67;;;19.42;55.55
52653;BME280;39353;42.864;12.014;2023-02-19T09:55:40;98402.80;;;19.43;55.88
52653;BME280;39353;42.864;12.014;2023-02-19T10:01:04;98402.78;;;19.47;56.99
52653;BME280;39353;42.864;12.014;2023-02-19T10:03:48;98401.87;;;19.48;56.83
52653;BME280;39353;42.864;12.014;2023-02-19T10:06:31;98402.51;;;19.49;56.27
52653;BME280;39353;42.864;12.014;2023-02-19T10:09:24;98400.16;;;19.49;56.04
52653;BME280;39353;42.864;12.014;2023-02-19T10:12:23;98400.98;;;19.50;55.75
52653;BME280;39353;42.864;12.014;2023-02-19T10:15:11;98404.54;;;19.51;55.87
52653;BME280;39353;42.864;12.014;2023-02-19T10:17:43;98405.21;;;19.52;55.35
52653;BME280;39353;42.864;12.014;2023-02-19T10:20:26;98408.20;;;19.52;55.01
52653;BME280;39353;42.864;12.014;2023-02-19T10:23:01;98404.10;;;19.53;55.06
52653;BME280;39353;42.864;12.014;2023-02-19T10:25:52;98401.88;;;19.52;54.37
52653;BME280;39353;42.864;12.014;2023-02-19T10:28:28;98407.39;;;19.51;54.14
52653;BME280;39353;42.864;12.014;2023-02-19T10:31:30;98411.87;;;19.52;54.26
52653;BME280;39353;42.864;12.014;2023-02-19T10:34:00;98412.09;;;19.52;54.11
52653;BME280;39353;42.864;12.014;2023-02-19T10:36:39;98405.91;;;19.50;53.13
52653;BME280;39353;42.864;12.014;2023-02-19T10:39:41;98408.04;;;19.49;53.26
52653;BME280;39353;42.864;12.014;2023-02-19T10:42:25;98408.70;;;19.48;53.36
52653;BME280;39353;42.864;12.014;2023-02-19T10:44:57;98410.00;;;19.48;53.42
52653;BME280;39353;42.864;12.014;2023-02-19T10:47:30;98405.59;;;19.48;53.46
52653;BME280;39353;42.864;12.014;2023-02-19T10:50:39;98408.70;;;19.48;53.42
52653;BME280;39353;42.864;12.014;2023-02-19T10:53:43;98411.76;;;19.48;53.31
52653;BME280;39353;42.864;12.014;2023-02-19T10:56:27;98406.39;;;19.47;53.08
52653;BME280;39353;42.864;12.014;2023-02-19T10:59:25;98402.54;;;19.48;53.26
52653;BME280;39353;42.864;12.014;2023-02-19T11:02:14;98399.39;;;19.45;53.23
52653;BME280;39353;42.864;12.014;2023-02-19T11:10:54;98393.56;;;19.40;53.01
52653;BME280;39353;42.864;12.014;2023-02-19T11:13:35;98396.58;;;19.38;53.05
52653;BME280;39353;42.864;12.014;2023-02-19T11:16:43;98394.90;;;19.37;53.02
52653;BME280;39353;42.864;12.014;2023-02-19T11:21:53;98393.45;;;19.33;52.83
52653;BME280;39353;42.864;12.014;2023-02-19T11:24:31;98389.34;;;19.33;52.78
52653;BME280;39353;42.864;12.014;2023-02-19T11:27:12;98382.90;;;19.32;52.95
52653;BME280;39353;42.864;12.014;2023-02-19T11:29:46;98380.50;;;19.31;52.76
52653;BME280;39353;42.864;12.014;2023-02-19T11:34:47;98377.45;;;19.28;52.68
52653;BME280;39353;42.864;12.014;2023-02-19T11:37:28;98374.30;;;19.27;52.73
52653;BME280;39353;42.864;12.014;2023-02-19T11:39:56;98371.36;;;19.28;52.75
52653;BME280;39353;42.864;12.014;2023-02-19T11:42:48;98366.13;;;19.26;52.73
52653;BME280;39353;42.864;12.014;2023-02-19T11:45:47;98360.76;;;19.25;52.63
52653;BME280;39353;42.864;12.014;2023-02-19T11:48:53;98360.73;;;19.26;52.73
52653;BME280;39353;42.864;12.014;2023-02-19T11:54:37;98356.58;;;19.34;54.61
52653;BME280;39353;42.864;12.014;2023-02-19T11:58:02;98352.42;;;19.38;55.17
52653;BME280;39353;42.864;12.014;2023-02-19T12:04:20;98347.30;;;19.40;55.54
52653;BME280;39353;42.864;12.014;2023-02-19T12:13:12;98340.50;;;19.39;55.53
52653;BME280;39353;42.864;12.014;2023-02-19T12:16:16;98335.73;;;19.47;56.62
52653;BME280;39353;42.864;12.014;2023-02-19T12:22:29;98335.77;;;19.72;59.50
52653;BME280;39353;42.864;12.014;2023-02-19T12:30:45;98315.11;;;19.98;60.72
52653;BME280;39353;42.864;12.014;2023-02-19T12:44:57;98291.83;;;20.37;62.59
52653;BME280;39353;42.864;12.014;2023-02-19T12:47:37;98289.30;;;20.45;62.68
52653;BME280;39353;42.864;12.014;2023-02-19T12:50:22;98284.58;;;20.50;62.75
52653;BME280;39353;42.864;12.014;2023-02-19T12:56:04;98278.01;;;20.59;61.57
52653;BME280;39353;42.864;12.014;2023-02-19T12:58:49;98273.38;;;20.65;61.10
52653;BME280;39353;42.864;12.014;2023-02-19T13:01:31;98266.17;;;20.72;60.58
52653;BME280;39353;42.864;12.014;2023-02-19T13:07:03;98264.47;;;20.87;59.81
52653;BME280;39353;42.864;12.014;2023-02-19T13:09:47;98260.62;;;20.95;59.25
52653;BME280;39353;42.864;12.014;2023-02-19T13:12:35;98253.20;;;21.02;58.75
52653;BME280;39353;42.864;12.014;2023-02-19T13:15:24;98253.58;;;21.09;58.26
52653;BME280;39353;42.864;12.014;2023-02-19T13:17:56;98250.02;;;21.15;57.78
52653;BME280;39353;42.864;12.014;2023-02-19T13:20:42;98242.25;;;21.20;57.32
52653;BME280;39353;42.864;12.014;2023-02-19T13:23:15;98243.77;;;21.23;56.89
52653;BME280;39353;42.864;12.014;2023-02-19T13:29:17;98240.99;;;21.31;55.54
52653;BME280;39353;42.864;12.014;2023-02-19T13:37:34;98231.77;;;21.35;54.64
52653;BME280;39353;42.864;12.014;2023-02-19T13:40:53;98227.11;;;21.36;54.34
52653;BME280;39353;42.864;12.014;2023-02-19T13:42:59;98220.55;;;21.36;54.26
52653;BME280;39353;42.864;12.014;2023-02-19T13:45:43;98223.38;;;21.37;54.09
52653;BME280;39353;42.864;12.014;2023-02-19T13:48:31;98216.32;;;21.39;53.83
52653;BME280;39353;42.864;12.014;2023-02-19T13:59:34;98211.09;;;21.64;53.63
52653;BME280;39353;42.864;12.014;2023-02-19T14:09:56;98204.29;;;21.88;52.35
52653;BME280;39353;42.864;12.014;2023-02-19T14:12:38;98207.52;;;21.93;52.30
52653;BME280;39353;42.864;12.014;2023-02-19T14:18:44;98202.67;;;22.04;51.99
52653;BME280;39353;42.864;12.014;2023-02-19T14:21:22;98200.81;;;22.09;51.58
52653;BME280;39353;42.864;12.014;2023-02-19T14:24:13;98197.04;;;22.14;51.58
52653;BME280;39353;42.864;12.014;2023-02-19T14:26:43;98191.55;;;22.15;51.71
52653;BME280;39353;42.864;12.014;2023-02-19T14:29:14;98197.61;;;22.07;50.24
52653;BME280;39353;42.864;12.014;2023-02-19T14:31:56;98190.14;;;21.84;48.78
52653;BME280;39353;42.864;12.014;2023-02-19T14:34:24;98192.71;;;21.80;49.67
52653;BME280;39353;42.864;12.014;2023-02-19T14:36:57;98189.77;;;21.84;49.71
52653;BME280;39353;42.864;12.014;2023-02-19T14:39:29;98184.86;;;21.91;50.15
52653;BME280;39353;42.864;12.014;2023-02-19T14:42:22;98182.86;;;21.97;50.28
52653;BME280;39353;42.864;12.014;2023-02-19T14:45:15;98181.25;;;22.02;50.40
52653;BME280;39353;42.864;12.014;2023-02-19T14:47:58;98175.77;;;22.05;50.51
52653;BME280;39353;42.864;12.014;2023-02-19T14:50:29;98176.65;;;22.08;50.33
52653;BME280;39353;42.864;12.014;2023-02-19T14:53:02;98170.83;;;22.11;50.39
52653;BME280;39353;42.864;12.014;2023-02-19T14:55:46;98177.52;;;22.14;50.12
52653;BME280;39353;42.864;12.014;2023-02-19T14:58:31;98172.27;;;22.17;50.10
52653;BME280;39353;42.864;12.014;2023-02-19T15:00:59;98168.67;;;22.17;49.77
52653;BME280;39353;42.864;12.014;2023-02-19T15:03:40;98170.06;;;22.18;49.27
52653;BME280;39353;42.864;12.014;2023-02-19T15:06:13;98172.29;;;22.19;48.96
52653;BME280;39353;42.864;12.014;2023-02-19T15:09:03;98179.89;;;22.21;48.85
52653;BME280;39353;42.864;12.014;2023-02-19T15:11:45;98182.41;;;22.23;48.57
52653;BME280;39353;42.864;12.014;2023-02-19T15:14:28;98185.52;;;22.29;48.31
52653;BME280;39353;42.864;12.014;2023-02-19T15:17:02;98195.05;;;22.34;47.94
52653;BME280;39353;42.864;12.014;2023-02-19T15:19:34;98197.42;;;22.37;47.73
52653;BME280;39353;42.864;12.014;2023-02-19T15:22:24;98196.44;;;22.39;47.59
52653;BME280;39353;42.864;12.014;2023-02-19T15:25:06;98195.69;;;22.42;47.43
52653;BME280;39353;42.864;12.014;2023-02-19T15:27:34;98198.37;;;22.42;47.22
52653;BME280;39353;42.864;12.014;2023-02-19T15:33:00;98194.59;;;22.44;46.83
52653;BME280;39353;42.864;12.014;2023-02-19T15:35:41;98187.65;;;22.43;46.71
52653;BME280;39353;42.864;12.014;2023-02-19T15:38:22;98191.20;;;22.43;46.64
52653;BME280;39353;42.864;12.014;2023-02-19T15:40:52;98189.88;;;22.42;46.55
52653;BME280;39353;42.864;12.014;2023-02-19T15:43:48;98187.59;;;22.41;46.52
52653;BME280;39353;42.864;12.014;2023-02-19T15:46:22;98185.47;;;22.43;46.55
52653;BME280;39353;42.864;12.014;2023-02-19T15:52:05;98183.21;;;22.48;46.85
52653;BME280;39353;42.864;12.014;2023-02-19T15:58:06;98179.83;;;22.51;47.03
52653;BME280;39353;42.864;12.014;2023-02-19T16:01:01;98184.30;;;22.51;47.25
52653;BME280;39353;42.864;12.014;2023-02-19T16:03:44;98185.94;;;22.51;47.18